Pamukkale, Turkey
Current Conditions -  °F | °C
As of 11:50 AM on Thursday 27 Nov 2014 (Local Time) from LTAY Reporting Station
Clear Clear  
Wind Chill: 37°   Ceiling: Unl
Heat Index: 41°   Visibility: 6mi
Dew Point: 32°   Wind: 6mph
Humidity: 70%   Direction: 100°E
Pressure: 30.09"   Gusts: NA
Location:  37.89°N, 29.13°E
Report Text: LTAY 270850Z 10005KT 070V150 CAVOK 05/M00 Q1019
Loading
Personal Weather Stations






























Interactive Weather Map New forecast layout! Learn more

10-Day Weather Forecast

Advertisements
Track Severe Weather on mobile